sensor_id;sensor_type;location;lat;lon;timestamp;temperature;humidity
5419;DHT22;2732;52.092;11.556;2023-05-07T00:04:18;10.50;99.90
5419;DHT22;2732;52.092;11.556;2023-05-07T00:09:18;10.50;99.90
5419;DHT22;2732;52.092;11.556;2023-05-07T00:14:19;10.50;99.90
5419;DHT22;2732;52.092;11.556;2023-05-07T00:19:20;10.50;99.90
5419;DHT22;2732;52.092;11.556;2023-05-07T00:24:20;10.40;99.90
5419;DHT22;2732;52.092;11.556;2023-05-07T00:29:21;10.40;99.90
5419;DHT22;2732;52.092;11.556;2023-05-07T00:34:21;10.40;99.90
5419;DHT22;2732;52.092;11.556;2023-05-07T00:39:22;10.40;99.90
5419;DHT22;2732;52.092;11.556;2023-05-07T00:44:23;10.30;99.90
5419;DHT22;2732;52.092;11.556;2023-05-07T00:49:35;10.30;99.90
5419;DHT22;2732;52.092;11.556;2023-05-07T00:54:38;10.30;99.90
5419;DHT22;2732;52.092;11.556;2023-05-07T00:59:41;10.20;99.90
5419;DHT22;2732;52.092;11.556;2023-05-07T01:04:42;10.20;99.90
5419;DHT22;2732;52.092;11.556;2023-05-07T01:09:42;10.20;99.90
5419;DHT22;2732;52.092;11.556;2023-05-07T01:14:43;10.10;99.90
5419;DHT22;2732;52.092;11.556;2023-05-07T01:19:44;10.10;99.90
5419;DHT22;2732;52.092;11.556;2023-05-07T01:24:44;10.10;99.90
5419;DHT22;2732;52.092;11.556;2023-05-07T01:29:45;10.10;99.90
5419;DHT22;2732;52.092;11.556;2023-05-07T01:34:46;10.10;99.90
5419;DHT22;2732;52.092;11.556;2023-05-07T01:39:48;10.00;99.90
5419;DHT22;2732;52.092;11.556;2023-05-07T01:44:50;10.00;99.90
5419;DHT22;2732;52.092;11.556;2023-05-07T01:49:52;10.00;99.90
5419;DHT22;2732;52.092;11.556;2023-05-07T01:54:53;10.00;99.90
5419;DHT22;2732;52.092;11.556;2023-05-07T01:59:53;10.00;99.90
5419;DHT22;2732;52.092;11.556;2023-05-07T02:04:54;10.00;99.90
5419;DHT22;2732;52.092;11.556;2023-05-07T02:09:55;10.00;99.90
5419;DHT22;2732;52.092;11.556;2023-05-07T02:14:56;10.00;99.90
5419;DHT22;2732;52.092;11.556;2023-05-07T02:19:56;10.00;99.90
5419;DHT22;2732;52.092;11.556;2023-05-07T02:24:57;10.00;99.90
5419;DHT22;2732;52.092;11.556;2023-05-07T02:29:57;10.00;99.90
5419;DHT22;2732;52.092;11.556;2023-05-07T02:34:58;10.00;99.90
5419;DHT22;2732;52.092;11.556;2023-05-07T02:39:58;10.00;99.90
5419;DHT22;2732;52.092;11.556;2023-05-07T02:44:59;10.00;99.90
5419;DHT22;2732;52.092;11.556;2023-05-07T02:50:00;9.90;99.90
5419;DHT22;2732;52.092;11.556;2023-05-07T02:55:00;9.90;99.90
5419;DHT22;2732;52.092;11.556;2023-05-07T03:00:17;9.90;99.90
5419;DHT22;2732;52.092;11.556;2023-05-07T03:05:19;9.90;99.90
5419;DHT22;2732;52.092;11.556;2023-05-07T03:10:19;9.90;99.90
5419;DHT22;2732;52.092;11.556;2023-05-07T03:15:20;9.80;99.90
5419;DHT22;2732;52.092;11.556;2023-05-07T03:20:22;9.80;99.90
5419;DHT22;2732;52.092;11.556;2023-05-07T03:25:22;9.80;99.90
5419;DHT22;2732;52.092;11.556;2023-05-07T03:30:23;9.80;99.90
5419;DHT22;2732;52.092;11.556;2023-05-07T03:35:24;9.80;99.90
5419;DHT22;2732;52.092;11.556;2023-05-07T03:40:24;9.80;99.90
5419;DHT22;2732;52.092;11.556;2023-05-07T03:45:25;9.80;99.90
5419;DHT22;2732;52.092;11.556;2023-05-07T03:50:26;9.80;99.90
5419;DHT22;2732;52.092;11.556;2023-05-07T03:55:26;9.80;99.90
5419;DHT22;2732;52.092;11.556;2023-05-07T04:00:27;9.80;99.90
5419;DHT22;2732;52.092;11.556;2023-05-07T04:05:28;9.80;99.90
5419;DHT22;2732;52.092;11.556;2023-05-07T04:10:30;9.80;99.90
5419;DHT22;2732;52.092;11.556;2023-05-07T04:15:31;9.80;99.90
5419;DHT22;2732;52.092;11.556;2023-05-07T04:20:34;9.80;99.90
5419;DHT22;2732;52.092;11.556;2023-05-07T04:25:36;9.80;99.90
5419;DHT22;2732;52.092;11.556;2023-05-07T04:30:37;9.80;99.90
5419;DHT22;2732;52.092;11.556;2023-05-07T04:35:37;9.80;99.90
5419;DHT22;2732;52.092;11.556;2023-05-07T04:40:38;9.80;99.90
5419;DHT22;2732;52.092;11.556;2023-05-07T04:45:39;9.80;99.90
5419;DHT22;2732;52.092;11.556;2023-05-07T04:50:41;9.80;99.90
5419;DHT22;2732;52.092;11.556;2023-05-07T04:55:42;9.90;99.90
5419;DHT22;2732;52.092;11.556;2023-05-07T05:00:42;9.90;99.90
5419;DHT22;2732;52.092;11.556;2023-05-07T05:05:43;9.90;99.90
5419;DHT22;2732;52.092;11.556;2023-05-07T05:10:45;9.90;99.90
5419;DHT22;2732;52.092;11.556;2023-05-07T05:15:45;9.90;99.90
5419;DHT22;2732;52.092;11.556;2023-05-07T05:20:46;9.90;99.90
5419;DHT22;2732;52.092;11.556;2023-05-07T05:25:46;9.90;99.90
5419;DHT22;2732;52.092;11.556;2023-05-07T05:30:47;10.00;99.90
5419;DHT22;2732;52.092;11.556;2023-05-07T05:35:50;10.00;99.90
5419;DHT22;2732;52.092;11.556;2023-05-07T05:40:52;10.00;99.90
5419;DHT22;2732;52.092;11.556;2023-05-07T05:45:52;10.10;99.90
5419;DHT22;2732;52.092;11.556;2023-05-07T05:50:53;10.10;99.90
5419;DHT22;2732;52.092;11.556;2023-05-07T05:55:54;10.20;99.90
5419;DHT22;2732;52.092;11.556;2023-05-07T06:00:54;10.20;99.90
5419;DHT22;2732;52.092;11.556;2023-05-07T06:05:55;10.20;99.90
5419;DHT22;2732;52.092;11.556;2023-05-07T06:10:56;10.20;99.90
5419;DHT22;2732;52.092;11.556;2023-05-07T06:15:57;10.30;99.90
5419;DHT22;2732;52.092;11.556;2023-05-07T06:20:57;10.30;99.90
5419;DHT22;2732;52.092;11.556;2023-05-07T06:25:58;10.40;99.90
5419;DHT22;2732;52.092;11.556;2023-05-07T06:31:15;10.40;99.90
5419;DHT22;2732;52.092;11.556;2023-05-07T06:36:16;10.50;99.90
5419;DHT22;2732;52.092;11.556;2023-05-07T06:41:17;10.50;99.90
5419;DHT22;2732;52.092;11.556;2023-05-07T06:46:18;10.60;99.90
5419;DHT22;2732;52.092;11.556;2023-05-07T06:51:18;10.70;99.90
5419;DHT22;2732;52.092;11.556;2023-05-07T06:56:19;10.70;99.90
5419;DHT22;2732;52.092;11.556;2023-05-07T07:01:20;10.70;99.90
5419;DHT22;2732;52.092;11.556;2023-05-07T07:06:20;10.80;99.90
5419;DHT22;2732;52.092;11.556;2023-05-07T07:11:21;10.80;99.90
5419;DHT22;2732;52.092;11.556;2023-05-07T07:16:22;10.90;99.90
5419;DHT22;2732;52.092;11.556;2023-05-07T07:21:22;10.90;99.90
5419;DHT22;2732;52.092;11.556;2023-05-07T07:26:23;11.00;99.90
5419;DHT22;2732;52.092;11.556;2023-05-07T07:31:23;11.10;99.90
5419;DHT22;2732;52.092;11.556;2023-05-07T07:36:24;11.20;99.90
5419;DHT22;2732;52.092;11.556;2023-05-07T07:41:26;11.20;99.90
5419;DHT22;2732;52.092;11.556;2023-05-07T07:46:26;11.30;99.90
5419;DHT22;2732;52.092;11.556;2023-05-07T07:51:27;11.30;99.90
5419;DHT22;2732;52.092;11.556;2023-05-07T07:56:27;11.40;99.90
5419;DHT22;2732;52.092;11.556;2023-05-07T08:01:30;11.50;99.90
5419;DHT22;2732;52.092;11.556;2023-05-07T08:06:32;11.60;99.90
5419;DHT22;2732;52.092;11.556;2023-05-07T08:11:33;11.60;99.90
5419;DHT22;2732;52.092;11.556;2023-05-07T08:16:34;11.70;99.90
5419;DHT22;2732;52.092;11.556;2023-05-07T08:21:34;11.80;99.90
5419;DHT22;2732;52.092;11.556;2023-05-07T08:26:35;11.80;99.90
5419;DHT22;2732;52.092;11.556;2023-05-07T08:31:36;11.90;99.90
5419;DHT22;2732;52.092;11.556;2023-05-07T08:36:38;12.00;99.90
5419;DHT22;2732;52.092;11.556;2023-05-07T08:41:44;12.10;99.90
5419;DHT22;2732;52.092;11.556;2023-05-07T08:46:47;12.10;99.90
5419;DHT22;2732;52.092;11.556;2023-05-07T08:51:51;12.10;99.90
5419;DHT22;2732;52.092;11.556;2023-05-07T08:56:52;12.10;99.90
5419;DHT22;2732;52.092;11.556;2023-05-07T09:01:53;12.20;99.90
5419;DHT22;2732;52.092;11.556;2023-05-07T09:06:55;12.10;99.90
5419;DHT22;2732;52.092;11.556;2023-05-07T09:11:57;12.20;99.90
5419;DHT22;2732;52.092;11.556;2023-05-07T09:16:59;12.20;99.90
5419;DHT22;2732;52.092;11.556;2023-05-07T09:22:05;12.40;99.90
5419;DHT22;2732;52.092;11.556;2023-05-07T09:27:07;12.50;99.90
5419;DHT22;2732;52.092;11.556;2023-05-07T09:32:11;12.50;99.90
5419;DHT22;2732;52.092;11.556;2023-05-07T09:37:13;12.60;99.90
5419;DHT22;2732;52.092;11.556;2023-05-07T09:42:14;12.70;99.90
5419;DHT22;2732;52.092;11.556;2023-05-07T09:47:18;12.80;99.90
5419;DHT22;2732;52.092;11.556;2023-05-07T09:52:20;13.00;99.90
5419;DHT22;2732;52.092;11.556;2023-05-07T09:57:21;13.10;99.90
5419;DHT22;2732;52.092;11.556;2023-05-07T10:02:23;13.10;99.90
5419;DHT22;2732;52.092;11.556;2023-05-07T10:07:26;13.40;99.90
5419;DHT22;2732;52.092;11.556;2023-05-07T10:12:28;13.50;99.90
5419;DHT22;2732;52.092;11.556;2023-05-07T10:17:29;13.60;99.90
5419;DHT22;2732;52.092;11.556;2023-05-07T10:22:39;13.70;99.90
5419;DHT22;2732;52.092;11.556;2023-05-07T10:27:43;14.00;99.90
5419;DHT22;2732;52.092;11.556;2023-05-07T10:32:48;14.20;99.90
5419;DHT22;2732;52.092;11.556;2023-05-07T10:37:52;14.20;99.90
5419;DHT22;2732;52.092;11.556;2023-05-07T10:42:59;14.20;99.90
5419;DHT22;2732;52.092;11.556;2023-05-07T10:48:16;14.30;99.90
5419;DHT22;2732;52.092;11.556;2023-05-07T11:03:22;14.30;99.90
5419;DHT22;2732;52.092;11.556;2023-05-07T11:08:22;14.30;99.90
5419;DHT22;2732;52.092;11.556;2023-05-07T11:13:44;14.20;99.90
5419;DHT22;2732;52.092;11.556;2023-05-07T11:18:50;14.20;99.90
5419;DHT22;2732;52.092;11.556;2023-05-07T11:23:55;14.30;99.90
5419;DHT22;2732;52.092;11.556;2023-05-07T11:28:57;14.30;99.90
5419;DHT22;2732;52.092;11.556;2023-05-07T11:33:59;14.40;99.90
5419;DHT22;2732;52.092;11.556;2023-05-07T11:39:00;14.40;99.90
5419;DHT22;2732;52.092;11.556;2023-05-07T11:44:01;14.50;99.90
5419;DHT22;2732;52.092;11.556;2023-05-07T11:49:01;14.60;99.90
5419;DHT22;2732;52.092;11.556;2023-05-07T11:54:04;14.70;99.90
5419;DHT22;2732;52.092;11.556;2023-05-07T11:59:08;14.80;99.90
5419;DHT22;2732;52.092;11.556;2023-05-07T12:04:09;14.80;99.90
5419;DHT22;2732;52.092;11.556;2023-05-07T12:09:10;14.80;99.90
5419;DHT22;2732;52.092;11.556;2023-05-07T12:14:13;14.90;99.90
5419;DHT22;2732;52.092;11.556;2023-05-07T12:19:14;15.00;99.90
5419;DHT22;2732;52.092;11.556;2023-05-07T12:24:15;15.20;99.90
5419;DHT22;2732;52.092;11.556;2023-05-07T12:29:16;15.30;99.90
5419;DHT22;2732;52.092;11.556;2023-05-07T12:34:16;15.20;99.90
5419;DHT22;2732;52.092;11.556;2023-05-07T12:39:17;15.20;99.90
5419;DHT22;2732;52.092;11.556;2023-05-07T12:44:17;15.20;99.90
5419;DHT22;2732;52.092;11.556;2023-05-07T12:49:18;15.30;99.90
5419;DHT22;2732;52.092;11.556;2023-05-07T12:54:33;15.30;99.90
5419;DHT22;2732;52.092;11.556;2023-05-07T12:59:39;15.50;99.90
5419;DHT22;2732;52.092;11.556;2023-05-07T13:04:40;15.50;99.90
5419;DHT22;2732;52.092;11.556;2023-05-07T13:09:41;15.50;99.90
5419;DHT22;2732;52.092;11.556;2023-05-07T13:14:42;15.60;99.90
5419;DHT22;2732;52.092;11.556;2023-05-07T13:19:43;15.80;99.90
5419;DHT22;2732;52.092;11.556;2023-05-07T13:24:43;16.00;99.90
5419;DHT22;2732;52.092;11.556;2023-05-07T13:29:44;16.10;99.90
5419;DHT22;2732;52.092;11.556;2023-05-07T13:34:44;16.20;99.90
5419;DHT22;2732;52.092;11.556;2023-05-07T13:39:45;16.30;99.90
5419;DHT22;2732;52.092;11.556;2023-05-07T13:44:46;16.30;99.90
5419;DHT22;2732;52.092;11.556;2023-05-07T13:49:46;16.30;99.90
5419;DHT22;2732;52.092;11.556;2023-05-07T13:54:49;16.20;99.90
5419;DHT22;2732;52.092;11.556;2023-05-07T13:59:52;16.20;99.90
5419;DHT22;2732;52.092;11.556;2023-05-07T14:04:53;16.20;99.90
5419;DHT22;2732;52.092;11.556;2023-05-07T14:09:55;16.40;99.90
5419;DHT22;2732;52.092;11.556;2023-05-07T14:14:56;16.50;99.90
5419;DHT22;2732;52.092;11.556;2023-05-07T14:19:57;16.50;99.90
5419;DHT22;2732;52.092;11.556;2023-05-07T14:24:59;16.60;99.90
5419;DHT22;2732;52.092;11.556;2023-05-07T14:30:07;16.50;99.70
5419;DHT22;2732;52.092;11.556;2023-05-07T14:35:08;16.70;99.20
5419;DHT22;2732;52.092;11.556;2023-05-07T14:40:10;16.90;99.20
5419;DHT22;2732;52.092;11.556;2023-05-07T14:45:12;16.80;99.30
5419;DHT22;2732;52.092;11.556;2023-05-07T14:50:13;16.90;99.00
5419;DHT22;2732;52.092;11.556;2023-05-07T14:55:14;16.90;98.90
5419;DHT22;2732;52.092;11.556;2023-05-07T15:00:15;16.90;98.90
5419;DHT22;2732;52.092;11.556;2023-05-07T15:05:16;16.90;98.80
5419;DHT22;2732;52.092;11.556;2023-05-07T15:10:17;17.10;98.70
5419;DHT22;2732;52.092;11.556;2023-05-07T15:15:18;17.20;98.30
5419;DHT22;2732;52.092;11.556;2023-05-07T15:20:19;17.60;98.20
5419;DHT22;2732;52.092;11.556;2023-05-07T15:25:19;17.60;98.30
5419;DHT22;2732;52.092;11.556;2023-05-07T15:30:20;17.50;98.00
5419;DHT22;2732;52.092;11.556;2023-05-07T15:35:21;17.20;97.80
5419;DHT22;2732;52.092;11.556;2023-05-07T15:40:22;17.30;98.20
5419;DHT22;2732;52.092;11.556;2023-05-07T15:45:23;17.50;98.10
5419;DHT22;2732;52.092;11.556;2023-05-07T15:50:24;17.60;98.00
5419;DHT22;2732;52.092;11.556;2023-05-07T15:55:25;17.80;97.80
5419;DHT22;2732;52.092;11.556;2023-05-07T16:00:26;18.10;97.60
5419;DHT22;2732;52.092;11.556;2023-05-07T16:05:27;17.90;97.30
5419;DHT22;2732;52.092;11.556;2023-05-07T16:10:28;17.80;97.10
5419;DHT22;2732;52.092;11.556;2023-05-07T16:15:29;17.80;97.20
5419;DHT22;2732;52.092;11.556;2023-05-07T16:20:30;18.00;97.20
5419;DHT22;2732;52.092;11.556;2023-05-07T16:25:32;18.00;97.20
5419;DHT22;2732;52.092;11.556;2023-05-07T16:30:33;17.90;97.00
5419;DHT22;2732;52.092;11.556;2023-05-07T16:35:34;17.70;96.70
5419;DHT22;2732;52.092;11.556;2023-05-07T16:40:40;17.70;96.80
5419;DHT22;2732;52.092;11.556;2023-05-07T16:45:41;17.70;96.50
5419;DHT22;2732;52.092;11.556;2023-05-07T16:50:41;17.70;96.40
5419;DHT22;2732;52.092;11.556;2023-05-07T16:55:43;17.60;96.60
5419;DHT22;2732;52.092;11.556;2023-05-07T17:00:44;17.40;96.50
5419;DHT22;2732;52.092;11.556;2023-05-07T17:05:44;17.40;96.20
5419;DHT22;2732;52.092;11.556;2023-05-07T17:10:45;17.50;96.10
5419;DHT22;2732;52.092;11.556;2023-05-07T17:15:46;17.50;96.00
5419;DHT22;2732;52.092;11.556;2023-05-07T17:20:48;17.50;95.90
5419;DHT22;2732;52.092;11.556;2023-05-07T17:25:49;17.50;95.90
5419;DHT22;2732;52.092;11.556;2023-05-07T17:30:49;17.40;95.60
5419;DHT22;2732;52.092;11.556;2023-05-07T17:35:53;17.30;95.50
5419;DHT22;2732;52.092;11.556;2023-05-07T17:40:56;17.10;95.50
5419;DHT22;2732;52.092;11.556;2023-05-07T17:46:02;16.90;95.60
5419;DHT22;2732;52.092;11.556;2023-05-07T17:51:03;16.60;95.80
5419;DHT22;2732;52.092;11.556;2023-05-07T17:56:05;16.40;95.90
5419;DHT22;2732;52.092;11.556;2023-05-07T18:01:06;16.20;96.10
5419;DHT22;2732;52.092;11.556;2023-05-07T18:06:08;15.90;96.40
5419;DHT22;2732;52.092;11.556;2023-05-07T18:11:09;15.60;96.50
5419;DHT22;2732;52.092;11.556;2023-05-07T18:16:09;15.40;96.70
5419;DHT22;2732;52.092;11.556;2023-05-07T18:21:10;15.10;96.90
5419;DHT22;2732;52.092;11.556;2023-05-07T18:26:14;14.90;97.10
5419;DHT22;2732;52.092;11.556;2023-05-07T18:31:16;14.70;97.40
5419;DHT22;2732;52.092;11.556;2023-05-07T18:36:16;14.40;97.60
5419;DHT22;2732;52.092;11.556;2023-05-07T18:41:18;14.20;97.80
5419;DHT22;2732;52.092;11.556;2023-05-07T18:46:19;14.10;98.00
5419;DHT22;2732;52.092;11.556;2023-05-07T18:51:19;13.80;98.20
5419;DHT22;2732;52.092;11.556;2023-05-07T18:56:20;13.60;98.50
5419;DHT22;2732;52.092;11.556;2023-05-07T19:01:21;13.50;98.50
5419;DHT22;2732;52.092;11.556;2023-05-07T19:06:21;13.30;98.70
5419;DHT22;2732;52.092;11.556;2023-05-07T19:11:22;13.10;99.00
5419;DHT22;2732;52.092;11.556;2023-05-07T19:16:23;12.90;99.30
5419;DHT22;2732;52.092;11.556;2023-05-07T19:21:24;12.70;99.60
5419;DHT22;2732;52.092;11.556;2023-05-07T19:26:25;12.60;99.90
5419;DHT22;2732;52.092;11.556;2023-05-07T19:31:26;12.40;99.90
5419;DHT22;2732;52.092;11.556;2023-05-07T19:36:26;12.30;99.90
5419;DHT22;2732;52.092;11.556;2023-05-07T19:41:27;12.10;99.90
5419;DHT22;2732;52.092;11.556;2023-05-07T19:46:28;12.00;99.90
5419;DHT22;2732;52.092;11.556;2023-05-07T19:51:28;11.90;99.90
5419;DHT22;2732;52.092;11.556;2023-05-07T19:56:33;11.90;99.90
5419;DHT22;2732;52.092;11.556;2023-05-07T20:01:34;11.80;99.90
5419;DHT22;2732;52.092;11.556;2023-05-07T20:06:35;11.80;99.90
5419;DHT22;2732;52.092;11.556;2023-05-07T20:11:36;11.70;99.90
5419;DHT22;2732;52.092;11.556;2023-05-07T20:16:37;11.70;99.90
5419;DHT22;2732;52.092;11.556;2023-05-07T20:21:37;11.60;99.90
5419;DHT22;2732;52.092;11.556;2023-05-07T20:26:38;11.60;99.90
5419;DHT22;2732;52.092;11.556;2023-05-07T20:31:40;11.50;99.90
5419;DHT22;2732;52.092;11.556;2023-05-07T20:36:40;11.50;99.90
5419;DHT22;2732;52.092;11.556;2023-05-07T20:41:42;11.40;99.90
5419;DHT22;2732;52.092;11.556;2023-05-07T20:46:43;11.40;99.90
5419;DHT22;2732;52.092;11.556;2023-05-07T20:51:44;11.30;99.90
5419;DHT22;2732;52.092;11.556;2023-05-07T20:56:44;11.30;99.90
5419;DHT22;2732;52.092;11.556;2023-05-07T21:01:45;11.30;99.90
5419;DHT22;2732;52.092;11.556;2023-05-07T21:06:45;11.20;99.90
5419;DHT22;2732;52.092;11.556;2023-05-07T21:11:46;11.10;99.90
5419;DHT22;2732;52.092;11.556;2023-05-07T21:16:46;11.00;99.90
5419;DHT22;2732;52.092;11.556;2023-05-07T21:21:47;11.00;99.90
5419;DHT22;2732;52.092;11.556;2023-05-07T21:26:48;10.90;99.90
5419;DHT22;2732;52.092;11.556;2023-05-07T21:31:48;10.80;99.90
5419;DHT22;2732;52.092;11.556;2023-05-07T21:36:49;10.70;99.90
5419;DHT22;2732;52.092;11.556;2023-05-07T21:41:50;10.60;99.90
5419;DHT22;2732;52.092;11.556;2023-05-07T21:46:50;10.60;99.90
5419;DHT22;2732;52.092;11.556;2023-05-07T21:51:51;10.50;99.90
5419;DHT22;2732;52.092;11.556;2023-05-07T21:56:51;10.40;99.90
5419;DHT22;2732;52.092;11.556;2023-05-07T22:01:55;10.30;99.90
5419;DHT22;2732;52.092;11.556;2023-05-07T22:06:56;10.20;99.90
5419;DHT22;2732;52.092;11.556;2023-05-07T22:11:56;10.10;99.90
5419;DHT22;2732;52.092;11.556;2023-05-07T22:16:57;10.00;99.90
5419;DHT22;2732;52.092;11.556;2023-05-07T22:21:58;9.90;99.90
5419;DHT22;2732;52.092;11.556;2023-05-07T22:26:59;9.80;99.90
5419;DHT22;2732;52.092;11.556;2023-05-07T22:31:59;9.80;99.90
5419;DHT22;2732;52.092;11.556;2023-05-07T22:37:00;9.70;99.90
5419;DHT22;2732;52.092;11.556;2023-05-07T22:42:00;9.60;99.90
5419;DHT22;2732;52.092;11.556;2023-05-07T22:47:01;9.50;99.90
5419;DHT22;2732;52.092;11.556;2023-05-07T22:52:02;9.40;99.90
5419;DHT22;2732;52.092;11.556;2023-05-07T22:57:03;9.40;99.90
5419;DHT22;2732;52.092;11.556;2023-05-07T23:02:04;9.30;99.90
5419;DHT22;2732;52.092;11.556;2023-05-07T23:07:04;9.30;99.90
5419;DHT22;2732;52.092;11.556;2023-05-07T23:12:06;9.20;99.90
5419;DHT22;2732;52.092;11.556;2023-05-07T23:17:07;9.20;99.90
5419;DHT22;2732;52.092;11.556;2023-05-07T23:22:08;9.10;99.90
5419;DHT22;2732;52.092;11.556;2023-05-07T23:27:09;9.00;99.90
5419;DHT22;2732;52.092;11.556;2023-05-07T23:32:10;9.00;99.90
5419;DHT22;2732;52.092;11.556;2023-05-07T23:37:10;8.90;99.90
5419;DHT22;2732;52.092;11.556;2023-05-07T23:42:11;8.80;99.90
5419;DHT22;2732;52.092;11.556;2023-05-07T23:47:14;8.80;99.90
5419;DHT22;2732;52.092;11.556;2023-05-07T23:52:15;8.70;99.90
5419;DHT22;2732;52.092;11.556;2023-05-07T23:57:16;8.60;99.90
